Time;durP1;ratioP1;P1;durP2;ratioP2;P2;SDS_P1;SDS_P2;PMS_P1;PMS_P2;Temp;Humidity;BMP_temperature;BMP_pressure;BME280_temperature;BME280_humidity;BME280_pressure;Samples;Min_cycle;Max_cycle;Signal;HPM_P1;HPM_P2
2021/06/03 00:01:17;;;;;;;5.13;2.27;;;;;;;7.93;68.04;97427.41;127860;1101;24252;-90
2021/06/03 00:03:47;;;;;;;4.28;2.68;;;;;;;7.92;68.08;97426.61;127847;1101;24128;-90
2021/06/03 00:06:18;;;;;;;3.47;2.40;;;;;;;8.07;67.92;97428.69;127804;1101;49914;-90
2021/06/03 00:08:48;;;;;;;3.40;2.10;;;;;;;8.21;67.75;97427.30;127883;1096;25928;-90
2021/06/03 00:11:19;;;;;;;5.58;2.20;;;;;;;8.32;67.36;97434.34;127852;1096;26217;-90
2021/06/03 00:13:49;;;;;;;3.30;2.10;;;;;;;8.27;67.54;97430.80;127838;1101;22793;-90
2021/06/03 00:16:20;;;;;;;4.03;2.63;;;;;;;8.24;67.46;97428.66;127875;1101;22869;-91
2021/06/03 00:18:49;;;;;;;3.80;2.80;;;;;;;8.19;67.69;97439.16;127851;1101;22890;-90
2021/06/03 00:21:20;;;;;;;3.13;2.25;;;;;;;8.14;67.43;97431.94;127729;1101;106175;-90
2021/06/03 00:23:52;;;;;;;4.98;2.50;;;;;;;8.08;68.26;97437.41;127865;1096;26229;-91
2021/06/03 00:26:22;;;;;;;5.45;2.70;;;;;;;8.07;68.27;97435.81;127849;1096;23702;-91
2021/06/03 00:28:53;;;;;;;3.00;2.08;;;;;;;8.09;68.61;97442.44;127884;1101;23360;-90
2021/06/03 00:31:23;;;;;;;4.08;2.60;;;;;;;8.10;68.00;97436.11;127831;1101;24407;-90
2021/06/03 00:33:53;;;;;;;2.75;2.30;;;;;;;8.15;67.76;97435.38;127826;1101;24412;-92
2021/06/03 00:36:23;;;;;;;5.25;2.65;;;;;;;8.23;67.94;97437.63;127781;1101;22766;-94
2021/06/03 00:38:53;;;;;;;6.67;2.33;;;;;;;8.29;67.74;97439.28;127802;1101;22938;-90
2021/06/03 00:41:23;;;;;;;2.48;1.98;;;;;;;8.15;68.11;97445.95;127853;1101;24568;-90
2021/06/03 00:43:54;;;;;;;6.43;2.28;;;;;;;8.01;68.55;97453.39;127868;1101;22935;-90
2021/06/03 00:46:24;;;;;;;4.88;2.50;;;;;;;7.91;68.54;97453.26;127812;1101;47887;-92
2021/06/03 00:48:54;;;;;;;3.38;2.13;;;;;;;7.89;68.81;97450.06;127818;1101;44655;-90
2021/06/03 00:51:25;;;;;;;3.63;2.03;;;;;;;7.71;68.94;97451.88;127809;1101;52859;-91
2021/06/03 00:53:54;;;;;;;;;;;;;;;7.71;69.65;97449.23;127857;1101;50740;-91
2021/06/03 00:56:24;;;;;;;3.03;2.25;;;;;;;7.76;69.22;97450.38;127841;1096;23453;-91
2021/06/03 00:58:54;;;;;;;5.60;2.55;;;;;;;7.82;68.99;97454.69;127821;1101;22766;-92
2021/06/03 01:01:24;;;;;;;5.63;2.43;;;;;;;7.90;68.73;97449.02;127829;1101;22870;-90
2021/06/03 01:03:53;;;;;;;2.73;2.40;;;;;;;7.93;69.14;97448.53;127810;1101;31832;-90
2021/06/03 01:06:23;;;;;;;3.60;2.40;;;;;;;7.97;68.91;97452.28;127839;1101;22788;-90
2021/06/03 01:09:02;;;;;;;4.33;2.18;;;;;;;7.98;69.06;97452.04;127842;1101;24349;-89
2021/06/03 01:11:36;;;;;;;6.23;2.70;;;;;;;7.96;69.18;97456.77;127827;1101;22684;-90
2021/06/03 01:14:13;;;;;;;3.18;2.20;;;;;;;7.93;69.26;97451.17;127836;1101;47327;-90
2021/06/03 01:16:43;;;;;;;3.55;2.00;;;;;;;7.99;69.06;97455.48;127838;1101;22775;-90
2021/06/03 01:19:20;;;;;;;3.78;2.30;;;;;;;8.05;68.97;97451.89;127877;1101;23157;-90
2021/06/03 01:21:53;;;;;;;4.38;2.08;;;;;;;8.02;68.43;97455.00;127801;1101;24112;-89
2021/06/03 01:24:30;;;;;;;5.63;2.70;;;;;;;8.00;68.95;97452.59;127800;1101;56449;-90
2021/06/03 01:27:04;;;;;;;3.25;2.38;;;;;;;8.03;68.19;97448.70;127833;1101;22894;-90
2021/06/03 01:29:43;;;;;;;2.53;1.98;;;;;;;8.09;68.60;97454.84;127872;1101;22765;-90
2021/06/03 01:32:14;;;;;;;2.38;2.15;;;;;;;8.00;68.55;97451.80;127856;1101;22758;-90
2021/06/03 01:34:45;;;;;;;2.78;2.18;;;;;;;7.97;68.72;97452.28;127843;1096;26236;-91
2021/06/03 01:37:16;;;;;;;3.85;2.30;;;;;;;7.84;68.96;97449.96;127832;1096;50023;-90
2021/06/03 01:39:47;;;;;;;3.60;2.58;;;;;;;7.71;68.90;97451.08;127791;1101;38268;-89
2021/06/03 01:42:19;;;;;;;3.55;2.30;;;;;;;7.68;69.31;97454.99;127819;1096;53241;-90
2021/06/03 01:44:50;;;;;;;5.08;2.28;;;;;;;7.60;69.70;97452.77;126340;1101;1761323;-90
2021/06/03 01:47:23;;;;;;;3.78;2.35;;;;;;;7.58;69.80;97454.81;127901;1095;46622;-91
2021/06/03 01:49:53;;;;;;;5.18;2.25;;;;;;;7.59;70.19;97459.05;127858;1101;51280;-90
2021/06/03 01:52:24;;;;;;;2.98;2.08;;;;;;;7.60;69.93;97460.68;127761;1101;55968;-89
2021/06/03 01:54:53;;;;;;;;;;;;;;;7.67;69.95;97458.67;127845;1101;49227;-90
2021/06/03 01:57:25;;;;;;;6.40;3.10;;;;;;;7.71;69.80;97470.34;127858;1096;51561;-90
2021/06/03 01:59:55;;;;;;;5.18;2.78;;;;;;;7.69;69.86;97451.31;127835;1101;49215;-89
2021/06/03 02:02:24;;;;;;;2.53;1.70;;;;;;;7.65;69.78;97459.95;127826;1101;47154;-91
2021/06/03 02:04:54;;;;;;;3.73;2.38;;;;;;;7.66;69.82;97459.71;127791;1101;47272;-90
2021/06/03 02:07:24;;;;;;;3.43;2.23;;;;;;;7.69;69.84;97461.87;127826;1096;66077;-91
2021/06/03 02:09:54;;;;;;;3.78;2.13;;;;;;;7.60;70.31;97460.68;125700;1101;2485327;-92
2021/06/03 02:12:26;;;;;;;3.05;2.30;;;;;;;7.57;70.58;97474.33;127871;1101;53271;-91
2021/06/03 02:14:57;;;;;;;3.23;2.25;;;;;;;7.60;70.51;97468.59;127870;1101;48829;-91
2021/06/03 02:17:33;;;;;;;5.55;2.40;;;;;;;7.70;70.25;97468.75;127880;1096;22769;-89
2021/06/03 02:20:08;;;;;;;5.40;2.18;;;;;;;7.80;69.88;97465.48;127899;1101;22993;-91
2021/06/03 02:22:42;;;;;;;3.30;2.28;;;;;;;7.83;70.17;97472.13;127975;1101;24112;-91
2021/06/03 02:25:13;;;;;;;4.75;2.35;;;;;;;7.77;69.87;97468.61;127914;1101;49329;-89
2021/06/03 02:27:45;;;;;;;2.95;1.78;;;;;;;7.66;70.06;97472.91;127963;1101;22958;-90
2021/06/03 02:30:20;;;;;;;3.03;2.05;;;;;;;7.60;70.22;97467.77;127798;1101;50678;-90
2021/06/03 02:32:52;;;;;;;3.58;2.00;;;;;;;7.65;70.64;97473.15;127770;1101;67564;-90
2021/06/03 02:35:23;;;;;;;3.65;2.53;;;;;;;7.64;70.55;97468.91;127941;1101;35931;-90
2021/06/03 02:37:53;;;;;;;3.30;2.55;;;;;;;7.59;70.49;97474.08;127954;1095;25871;-89
2021/06/03 02:40:26;;;;;;;2.73;1.90;;;;;;;7.55;70.45;97471.13;127899;1101;22769;-90
2021/06/03 02:42:57;;;;;;;2.73;1.85;;;;;;;7.46;70.64;97477.84;127888;1101;54049;-90
2021/06/03 02:45:30;;;;;;;3.97;2.20;;;;;;;7.39;71.18;97475.33;127851;1101;25503;-91
2021/06/03 02:48:02;;;;;;;3.08;2.73;;;;;;;7.40;71.16;97481.41;127939;1101;22790;-89
2021/06/03 02:50:32;;;;;;;3.65;2.60;;;;;;;7.44;71.25;97480.69;127921;1101;24686;-90
2021/06/03 02:53:02;;;;;;;4.20;2.63;;;;;;;7.50;71.28;97483.44;127936;1101;24521;-91
2021/06/03 02:55:32;;;;;;;11.40;4.23;;;;;;;7.28;71.32;97480.65;127891;1101;33787;-90
2021/06/03 02:58:02;;;;;;;11.95;5.68;;;;;;;7.21;71.60;97480.00;127880;1101;45702;-89
2021/06/03 03:00:32;;;;;;;;;;;;;;;7.21;71.86;97488.72;127878;1101;23535;-89
2021/06/03 03:03:05;;;;;;;4.93;3.18;;;;;;;7.19;72.32;97488.16;127840;1101;32771;-89
2021/06/03 03:05:35;;;;;;;7.23;3.63;;;;;;;7.27;72.57;97486.96;127892;1101;22921;-89
2021/06/03 03:08:05;;;;;;;4.63;2.58;;;;;;;7.35;72.50;97487.41;127889;1096;52441;-89
2021/06/03 03:10:38;;;;;;;7.83;3.15;;;;;;;7.42;72.49;97487.25;127867;1101;44025;-89
2021/06/03 03:13:08;;;;;;;5.45;2.65;;;;;;;7.53;72.32;97482.95;127943;1096;27109;-90
2021/06/03 03:15:38;;;;;;;;;;;;;;;7.58;72.44;97490.95;127956;1101;22939;-89
2021/06/03 03:18:08;;;;;;;3.80;2.53;;;;;;;7.48;72.47;97485.52;127973;1101;22172;-89
2021/06/03 03:20:40;;;;;;;3.85;2.40;;;;;;;7.47;72.96;97497.91;127970;1101;22771;-90
2021/06/03 03:23:12;;;;;;;3.73;2.35;;;;;;;7.64;72.80;97490.83;127953;1101;51116;-90
2021/06/03 03:25:42;;;;;;;3.48;2.40;;;;;;;7.83;72.24;97483.48;127971;1101;25975;-90
2021/06/03 03:28:12;;;;;;;3.58;2.33;;;;;;;8.02;72.39;97492.80;127979;1101;22792;-91
2021/06/03 03:30:43;;;;;;;4.88;2.30;;;;;;;8.13;71.93;97493.73;127920;1101;22776;-90
2021/06/03 03:33:15;;;;;;;4.13;2.23;;;;;;;8.16;71.90;97493.24;127893;1101;43560;-90
2021/06/03 03:35:47;;;;;;;4.45;2.58;;;;;;;8.14;71.83;97494.53;127894;1101;22848;-90
2021/06/03 03:38:18;;;;;;;4.20;1.90;;;;;;;8.17;72.06;97499.36;127860;1101;52052;-90
2021/06/03 03:40:49;;;;;;;2.25;1.78;;;;;;;8.25;71.94;97491.81;127971;1101;22818;-90
2021/06/03 03:43:20;;;;;;;5.33;2.30;;;;;;;8.34;72.11;97500.17;127862;1096;27177;-90
2021/06/03 03:45:50;;;;;;;2.70;1.70;;;;;;;8.37;72.31;97496.23;127871;1096;42302;-90
2021/06/03 03:48:19;;;;;;;4.75;2.03;;;;;;;8.37;72.07;97494.39;127922;1101;24437;-90
2021/06/03 03:50:49;;;;;;;4.00;2.30;;;;;;;8.41;72.42;97494.70;127833;1101;22786;-90
2021/06/03 03:53:19;;;;;;;3.33;2.20;;;;;;;8.46;72.27;97495.59;127808;1101;23719;-90
2021/06/03 03:55:49;;;;;;;5.20;2.33;;;;;;;8.55;72.03;97496.77;127805;1101;49258;-90
2021/06/03 03:58:19;;;;;;;3.53;2.07;;;;;;;8.60;72.43;97488.13;127876;1101;24495;-91
2021/06/03 04:00:49;;;;;;;4.33;2.53;;;;;;;8.72;72.29;97501.22;127898;1096;23713;-91
2021/06/03 04:03:19;;;;;;;3.47;2.13;;;;;;;8.85;72.27;97498.22;127857;1101;23723;-92
2021/06/03 04:05:49;;;;;;;4.13;2.47;;;;;;;8.90;72.29;97499.10;127853;1101;51662;-90
2021/06/03 04:08:19;;;;;;;8.28;2.68;;;;;;;8.98;71.94;97494.41;127909;1101;49929;-91
2021/06/03 04:10:49;;;;;;;4.83;2.75;;;;;;;9.17;72.12;97499.16;127923;1096;29080;-92
2021/06/03 04:13:19;;;;;;;6.15;2.80;;;;;;;9.38;71.60;97497.53;127895;1095;51666;-92
2021/06/03 04:15:49;;;;;;;4.47;2.60;;;;;;;9.59;71.55;97501.21;127878;1101;54870;-91
2021/06/03 04:18:18;;;;;;;5.45;2.78;;;;;;;9.77;71.41;97500.05;127940;1101;23988;-92
2021/06/03 04:20:49;;;;;;;3.87;2.73;;;;;;;9.92;71.43;97486.14;127890;1101;50942;-91
2021/06/03 04:23:19;;;;;;;4.10;2.90;;;;;;;10.02;71.37;97497.63;127949;1101;22767;-92
2021/06/03 04:25:49;;;;;;;4.58;3.08;;;;;;;10.07;71.10;97500.31;127933;1096;26628;-91
2021/06/03 04:28:19;;;;;;;4.33;2.68;;;;;;;10.19;70.72;97496.70;127904;1095;51073;-91
2021/06/03 04:30:49;;;;;;;3.78;3.20;;;;;;;10.33;70.32;97509.30;127926;1101;24210;-91
2021/06/03 04:33:22;;;;;;;5.55;3.48;;;;;;;10.52;70.32;97509.67;127926;1101;22832;-92
2021/06/03 04:35:53;;;;;;;5.55;3.40;;;;;;;10.69;69.93;97504.20;127874;1101;49570;-92
2021/06/03 04:38:21;;;;;;;;;;;;;;;10.83;69.69;97499.24;127965;1101;23928;-91
2021/06/03 04:40:52;;;;;;;6.60;3.48;;;;;;;10.95;69.16;97502.49;127863;1101;50341;-92
2021/06/03 04:43:22;;;;;;;7.78;3.48;;;;;;;11.07;68.53;97512.90;127890;1101;23183;-91
2021/06/03 04:45:52;;;;;;;6.50;3.70;;;;;;;11.17;68.33;97508.44;127806;1096;57501;-92
2021/06/03 04:48:22;;;;;;;7.03;3.73;;;;;;;11.33;68.07;97508.50;127939;1101;23068;-92
2021/06/03 04:50:52;;;;;;;4.80;3.35;;;;;;;11.43;68.23;97508.53;127888;1101;53159;-91
2021/06/03 04:53:22;;;;;;;6.73;3.88;;;;;;;11.47;68.70;97517.56;127914;1101;23241;-91
2021/06/03 04:55:52;;;;;;;5.13;3.35;;;;;;;11.69;69.55;97520.03;127914;1101;25317;-91
2021/06/03 04:58:22;;;;;;;4.20;2.88;;;;;;;11.84;68.32;97517.42;127795;1101;52153;-92
2021/06/03 05:00:52;;;;;;;4.73;3.10;;;;;;;11.89;66.97;97517.42;127913;1096;53343;-91
2021/06/03 05:03:22;;;;;;;4.53;3.30;;;;;;;12.08;66.54;97525.66;127929;1101;23647;-92
2021/06/03 05:05:52;;;;;;;5.65;3.75;;;;;;;12.21;66.63;97530.46;127912;1101;26037;-91
2021/06/03 05:08:22;;;;;;;5.10;3.75;;;;;;;12.47;66.11;97523.28;127869;1101;51854;-92
2021/06/03 05:10:52;;;;;;;6.43;3.85;;;;;;;12.78;65.73;97530.14;127828;1101;52468;-90
2021/06/03 05:13:22;;;;;;;6.35;3.03;;;;;;;13.46;64.87;97528.89;126068;1101;2033602;-91
2021/06/03 05:15:53;;;;;;;6.83;3.38;;;;;;;14.60;63.48;97526.78;127808;1101;72455;-92
2021/06/03 05:18:23;;;;;;;5.38;3.48;;;;;;;16.19;63.10;97529.14;127836;1101;69030;-91
2021/06/03 05:20:54;;;;;;;6.28;3.50;;;;;;;17.90;60.11;97526.20;127931;1101;40571;-91
2021/06/03 05:23:24;;;;;;;5.00;3.08;;;;;;;19.36;57.16;97517.40;127936;1101;22823;-92
2021/06/03 05:25:55;;;;;;;5.78;3.03;;;;;;;20.82;55.20;97526.59;127874;1101;50768;-91
2021/06/03 05:28:25;;;;;;;4.08;2.98;;;;;;;22.59;53.90;97520.25;127921;1101;43951;-91
2021/06/03 05:30:55;;;;;;;4.80;2.85;;;;;;;23.87;51.82;97525.19;127910;1101;45142;-92
2021/06/03 05:33:25;;;;;;;4.23;2.88;;;;;;;24.78;49.89;97519.20;127932;1101;52244;-91
2021/06/03 05:35:55;;;;;;;4.18;2.78;;;;;;;25.43;48.16;97515.00;127888;1101;52987;-90
2021/06/03 05:38:25;;;;;;;4.45;3.05;;;;;;;26.22;46.83;97520.23;127870;1094;50780;-91
2021/06/03 05:40:56;;;;;;;5.03;2.78;;;;;;;27.13;44.73;97529.69;127982;1097;26321;-91
2021/06/03 05:43:26;;;;;;;3.55;2.75;;;;;;;27.72;42.54;97520.89;127882;1101;45990;-91
2021/06/03 05:45:55;;;;;;;3.23;2.73;;;;;;;28.07;41.74;97525.26;127934;1096;26280;-92
2021/06/03 05:48:25;;;;;;;6.00;2.75;;;;;;;28.72;40.96;97513.95;127873;1096;54523;-91
2021/06/03 05:50:56;;;;;;;3.83;2.38;;;;;;;29.62;39.35;97519.01;127860;1101;51858;-91
2021/06/03 05:53:25;;;;;;;5.23;2.80;;;;;;;30.56;38.65;97523.75;127876;1101;45940;-92
2021/06/03 05:55:55;;;;;;;5.48;2.90;;;;;;;31.74;36.93;97519.92;127910;1101;25055;-92
2021/06/03 05:58:25;;;;;;;4.63;2.68;;;;;;;32.71;34.76;97523.85;127946;1101;25799;-93
2021/06/03 06:00:54;;;;;;;;;;;;;;;33.38;33.38;97526.55;127942;1101;48608;-93
2021/06/03 06:03:33;;;;;;;3.25;2.35;;;;;;;34.41;33.70;97528.22;127867;1101;65160;-93
2021/06/03 06:06:22;;;;;;;5.45;2.90;;;;;;;35.47;32.45;97536.09;127828;1101;55718;-94
2021/06/03 06:08:55;;;;;;;3.48;2.30;;;;;;;36.45;31.42;97532.66;127906;1095;25696;-93
2021/06/03 06:11:27;;;;;;;3.97;2.37;;;;;;;36.84;28.90;97533.81;127827;1101;55014;-94
2021/06/03 06:13:58;;;;;;;2.90;2.23;;;;;;;36.92;28.07;97531.67;127919;1101;25927;-94
2021/06/03 06:16:28;;;;;;;2.93;2.30;;;;;;;35.98;22.91;97532.81;127813;1101;47772;-94
2021/06/03 06:18:59;;;;;;;3.15;1.85;;;;;;;34.55;23.60;97528.02;127509;1101;27733;-95
2021/06/03 06:21:29;;;;;;;3.55;2.33;;;;;;;34.16;23.29;97532.03;127885;1101;62476;-96
2021/06/03 06:24:00;;;;;;;3.55;2.20;;;;;;;33.59;24.32;97534.59;127694;1101;189945;-95
2021/06/03 06:26:33;;;;;;;5.10;2.00;;;;;;;34.11;26.09;97532.49;127887;1101;57980;-95
2021/06/03 06:29:03;;;;;;;2.68;2.15;;;;;;;35.16;21.69;97538.95;128021;1101;27978;-96
2021/06/03 06:31:33;;;;;;;2.05;1.58;;;;;;;35.13;23.05;97548.06;127923;1101;27198;-96
2021/06/03 06:34:03;;;;;;;3.70;1.90;;;;;;;34.27;20.12;97533.88;127875;1101;28003;-95
2021/06/03 06:36:44;;;;;;;4.00;2.00;;;;;;;33.28;21.38;97534.45;127818;1101;29668;-94
2021/06/03 06:39:17;;;;;;;3.05;2.30;;;;;;;32.57;22.22;97539.63;127880;1096;26426;-94
2021/06/03 06:41:50;;;;;;;2.80;2.20;;;;;;;33.12;24.42;97541.66;123675;1101;3519707;-93
2021/06/03 06:44:20;;;;;;;2.78;1.93;;;;;;;34.74;24.58;97541.13;127867;1101;27586;-95
2021/06/03 06:46:51;;;;;;;2.60;2.03;;;;;;;35.64;23.87;97541.32;127839;1096;30649;-94
2021/06/03 06:49:21;;;;;;;2.33;2.10;;;;;;;36.11;21.31;97545.98;127826;1101;27453;-94
2021/06/03 06:51:51;;;;;;;2.83;2.05;;;;;;;36.21;19.99;97539.47;127835;1101;44583;-94
2021/06/03 06:54:21;;;;;;;3.05;2.15;;;;;;;35.60;19.27;97550.84;127833;1101;27667;-94
2021/06/03 06:56:52;;;;;;;3.83;2.15;;;;;;;34.45;20.68;97545.47;127832;1101;34707;-95
2021/06/03 06:59:22;;;;;;;5.75;2.08;;;;;;;34.86;22.07;97544.51;127795;1101;47789;-96
2021/06/03 07:01:52;;;;;;;3.13;2.07;;;;;;;35.36;22.20;97547.33;127851;1101;45614;-95
2021/06/03 07:04:22;;;;;;;4.20;1.90;;;;;;;35.46;17.63;97545.57;127826;1101;36392;-95
2021/06/03 07:06:52;;;;;;;3.85;1.83;;;;;;;33.92;20.19;97547.66;127770;1101;24827;-94
2021/06/03 07:09:22;;;;;;;2.35;2.00;;;;;;;34.20;20.67;97543.77;127802;1101;26857;-96
2021/06/03 07:11:53;;;;;;;3.60;1.98;;;;;;;34.73;20.99;97550.59;127731;1101;35665;-95
2021/06/03 07:14:23;;;;;;;2.18;1.90;;;;;;;35.05;17.75;97552.11;127764;1101;26313;-96
2021/06/03 07:16:53;;;;;;;2.65;1.73;;;;;;;35.03;20.20;97557.27;127753;1096;86018;-94
2021/06/03 07:19:23;;;;;;;1.90;1.70;;;;;;;36.30;18.44;97553.47;127870;1096;23070;-93
2021/06/03 07:21:53;;;;;;;3.53;1.88;;;;;;;36.09;18.15;97556.67;127806;1096;52170;-94
2021/06/03 07:24:23;;;;;;;3.05;1.80;;;;;;;37.27;19.86;97547.42;127764;1101;50799;-95
2021/06/03 07:26:54;;;;;;;2.85;1.55;;;;;;;38.89;19.06;97554.45;127829;1096;31527;-96
2021/06/03 07:29:24;;;;;;;1.90;1.78;;;;;;;39.83;19.62;97550.20;127986;1101;29419;-96
2021/06/03 07:31:54;;;;;;;3.88;2.08;;;;;;;41.20;19.55;97544.67;127923;1101;32853;-94
2021/06/03 07:34:25;;;;;;;1.80;1.63;;;;;;;42.12;18.20;97540.02;127867;1101;40507;-94
2021/06/03 07:36:55;;;;;;;1.98;1.78;;;;;;;42.42;17.27;97538.25;127913;1101;32489;-94
2021/06/03 07:39:29;;;;;;;2.58;1.65;;;;;;;42.62;16.44;97540.52;127895;1101;32349;-94
2021/06/03 07:41:59;;;;;;;4.28;1.58;;;;;;;42.84;17.46;97532.69;127898;1101;33161;-96
2021/06/03 07:44:29;;;;;;;2.13;1.90;;;;;;;43.66;16.60;97544.66;127826;1101;32629;-96
2021/06/03 07:46:59;;;;;;;2.40;1.30;;;;;;;44.22;16.85;97542.97;127831;1101;24640;-96
2021/06/03 07:49:29;;;;;;;2.17;1.73;;;;;;;44.49;15.50;97542.70;127776;1101;30244;-96
2021/06/03 07:52:02;;;;;;;2.93;1.67;;;;;;;44.28;15.64;97538.23;127766;1101;30562;-96
2021/06/03 07:54:33;;;;;;;1.60;1.50;;;;;;;44.43;15.28;97541.80;127794;1101;35273;-96
2021/06/03 07:57:03;;;;;;;2.13;1.68;;;;;;;44.44;15.81;97543.34;127774;1101;36289;-95
2021/06/03 07:59:34;;;;;;;2.85;1.80;;;;;;;42.70;13.39;97532.61;127792;1101;31381;-96
2021/06/03 08:02:05;;;;;;;1.70;1.60;;;;;;;41.78;12.58;97541.85;127811;1096;30391;-96
2021/06/03 08:04:35;;;;;;;3.30;1.60;;;;;;;39.28;13.56;97544.14;127780;1101;29429;-96
2021/06/03 08:07:05;;;;;;;1.50;1.40;;;;;;;37.55;14.75;97548.69;127829;1101;29877;-96
2021/06/03 08:09:36;;;;;;;4.10;1.50;;;;;;;37.31;16.15;97548.13;127783;1101;29912;-96
2021/06/03 08:12:08;;;;;;;4.05;1.80;;;;;;;38.24;17.22;97535.39;127794;1101;31761;-96
2021/06/03 08:14:38;;;;;;;4.00;1.95;;;;;;;40.04;16.76;97540.36;127850;1101;33960;-96
2021/06/03 08:17:08;;;;;;;1.85;1.75;;;;;;;40.17;14.63;97543.85;127865;1101;30810;-95
2021/06/03 08:19:38;;;;;;;1.90;1.70;;;;;;;40.71;16.05;97536.30;127764;1101;31788;-96
2021/06/03 08:22:08;;;;;;;3.57;1.80;;;;;;;41.86;15.74;97539.55;127779;1096;31028;-94
2021/06/03 08:24:39;;;;;;;4.20;2.28;;;;;;;42.44;15.43;97544.12;127884;1101;33321;-95
2021/06/03 08:27:09;;;;;;;2.65;1.80;;;;;;;42.34;14.85;97542.59;127813;1101;47842;-95
2021/06/03 08:29:39;;;;;;;3.73;1.90;;;;;;;42.26;14.75;97536.58;127786;1096;38478;-95
2021/06/03 08:32:10;;;;;;;5.28;1.70;;;;;;;43.33;15.28;97537.12;127800;1101;32903;-95
2021/06/03 08:34:40;;;;;;;2.90;2.00;;;;;;;41.92;11.29;97540.45;127814;1101;35470;-95
2021/06/03 08:37:11;;;;;;;2.63;1.93;;;;;;;36.66;13.68;97541.70;127878;1101;34543;-96
2021/06/03 08:39:41;;;;;;;2.85;1.70;;;;;;;34.36;16.13;97548.73;127825;1101;34059;-95
2021/06/03 08:42:14;;;;;;;2.30;1.60;;;;;;;35.68;17.14;97544.00;127835;1101;32845;-96
2021/06/03 08:44:45;;;;;;;1.88;1.65;;;;;;;37.86;16.85;97542.77;127806;1101;26149;-94
2021/06/03 08:47:15;;;;;;;2.60;1.63;;;;;;;39.12;13.81;97542.25;127804;1101;30517;-95
2021/06/03 08:49:46;;;;;;;3.70;2.10;;;;;;;36.25;14.65;97535.42;127799;1101;25981;-94
2021/06/03 08:52:17;;;;;;;2.63;2.03;;;;;;;33.26;17.32;97533.30;127721;1101;29970;-95
2021/06/03 08:54:53;;;;;;;2.23;1.90;;;;;;;30.61;19.81;97546.05;127799;1101;32343;-96
2021/06/03 08:57:25;;;;;;;3.68;2.35;;;;;;;28.72;21.87;97541.23;127772;1101;27465;-96
2021/06/03 08:59:55;;;;;;;2.83;2.20;;;;;;;27.94;22.96;97541.05;127831;1101;25051;-94
2021/06/03 09:02:25;;;;;;;2.88;1.90;;;;;;;27.18;23.82;97546.52;127777;1101;24340;-95
2021/06/03 09:04:55;;;;;;;3.50;2.05;;;;;;;26.21;24.79;97540.41;127777;1101;26874;-96
2021/06/03 09:07:28;;;;;;;;;;;;;;;26.36;25.92;97541.50;127809;1101;27503;-94
2021/06/03 09:10:18;;;;;;;4.50;1.85;;;;;;;25.55;24.61;97543.19;127727;1101;24040;-94
2021/06/03 09:13:09;;;;;;;2.38;1.98;;;;;;;25.15;26.59;97536.83;127774;1101;29126;-95
2021/06/03 09:15:45;;;;;;;3.70;2.50;;;;;;;25.27;26.80;97541.38;127868;1101;26644;-95
2021/06/03 09:18:16;;;;;;;3.77;2.40;;;;;;;25.54;28.22;97531.55;127803;1101;27321;-95
2021/06/03 09:20:47;;;;;;;2.93;2.20;;;;;;;25.95;27.17;97542.95;127781;1096;28409;-94
2021/06/03 09:23:32;;;;;;;4.40;2.00;;;;;;;26.12;26.37;97537.09;127808;1101;23844;-94
2021/06/03 09:26:08;;;;;;;3.05;2.10;;;;;;;25.31;26.82;97536.81;127747;1101;26613;-96
2021/06/03 09:28:40;;;;;;;3.40;2.15;;;;;;;24.19;27.79;97534.23;126334;1096;1807581;-93
2021/06/03 09:31:19;;;;;;;3.33;2.25;;;;;;;23.56;28.97;97544.73;127864;1096;28411;-94
2021/06/03 09:34:01;;;;;;;2.75;1.83;;;;;;;23.99;28.87;97538.70;127842;1101;25236;-94
2021/06/03 09:36:42;;;;;;;6.15;2.50;;;;;;;23.98;28.60;97541.76;127825;1096;24630;-94
2021/06/03 09:39:26;;;;;;;3.40;2.13;;;;;;;24.43;29.79;97540.73;127873;1101;25045;-95
2021/06/03 09:41:59;;;;;;;3.85;2.23;;;;;;;24.78;27.63;97541.69;127857;1101;28793;-94
2021/06/03 09:44:35;;;;;;;3.15;2.03;;;;;;;24.46;28.13;97546.23;127835;1096;32685;-95
2021/06/03 09:47:08;;;;;;;4.15;2.68;;;;;;;23.41;28.36;97540.00;127812;1101;23698;-93
2021/06/03 09:49:39;;;;;;;4.65;2.50;;;;;;;22.93;29.29;97536.13;127858;1101;55882;-95
2021/06/03 09:52:12;;;;;;;2.58;2.30;;;;;;;22.74;28.15;97533.13;127882;1101;32195;-92
2021/06/03 09:54:47;;;;;;;2.20;2.00;;;;;;;22.29;30.50;97536.59;127902;1101;25715;-93
2021/06/03 09:57:17;;;;;;;4.40;2.70;;;;;;;21.89;31.28;97544.34;127826;1101;27840;-89
2021/06/03 09:59:57;;;;;;;3.98;2.30;;;;;;;21.80;32.93;97532.80;127779;1100;24920;-96
2021/06/03 10:02:32;;;;;;;4.38;2.40;;;;;;;22.12;31.39;97534.84;127723;1101;58883;-95
2021/06/03 10:05:13;;;;;;;2.73;2.30;;;;;;;22.28;33.59;97536.93;127846;1101;23354;-94
2021/06/03 10:07:56;;;;;;;3.45;2.55;;;;;;;22.89;32.70;97534.43;127820;1101;53476;-93
2021/06/03 10:10:27;;;;;;;6.18;2.60;;;;;;;23.17;32.64;97529.17;127757;1097;51693;-91
2021/06/03 10:12:58;;;;;;;5.65;2.63;;;;;;;23.44;31.86;97525.00;127782;1101;23880;-93
2021/06/03 10:15:45;;;;;;;2.53;1.90;;;;;;;23.62;30.89;97535.27;127711;1101;54277;-92
2021/06/03 10:18:18;;;;;;;4.53;2.13;;;;;;;22.32;31.66;97533.23;127882;1101;22787;-92
2021/06/03 10:20:52;;;;;;;2.65;2.10;;;;;;;21.99;32.44;97545.88;127863;1096;27414;-92
2021/06/03 10:23:25;;;;;;;3.53;2.58;;;;;;;21.84;32.76;97534.55;127861;1101;26975;-93
2021/06/03 10:25:59;;;;;;;3.70;2.10;;;;;;;21.73;30.67;97541.44;127851;1101;24992;-93
2021/06/03 10:28:30;;;;;;;4.45;2.50;;;;;;;21.20;31.52;97534.70;127817;1101;25047;-95
2021/06/03 10:31:07;;;;;;;3.53;2.40;;;;;;;20.85;32.65;97530.58;127746;1096;41297;-94
2021/06/03 10:33:39;;;;;;;4.03;2.50;;;;;;;21.07;34.25;97534.92;127786;1101;22793;-94
2021/06/03 10:36:13;;;;;;;5.00;2.28;;;;;;;21.65;33.63;97536.88;127834;1101;24254;-92
2021/06/03 10:38:43;;;;;;;4.80;2.73;;;;;;;22.02;33.10;97537.11;127957;1096;25749;-95
2021/06/03 10:41:17;;;;;;;3.95;2.00;;;;;;;22.30;32.80;97534.68;127804;1101;53714;-93
2021/06/03 10:43:47;;;;;;;3.35;2.13;;;;;;;22.59;32.19;97528.36;127867;1101;22929;-94
2021/06/03 10:46:17;;;;;;;2.10;1.80;;;;;;;22.61;33.23;97528.81;127769;1096;85186;-93
2021/06/03 10:48:47;;;;;;;3.10;2.00;;;;;;;22.77;32.15;97519.73;127803;1101;53822;-93
2021/06/03 10:51:17;;;;;;;;;;;;;;;22.76;31.52;97525.47;127811;1101;76878;-93
2021/06/03 10:53:48;;;;;;;2.15;1.80;;;;;;;22.51;31.61;97522.70;127732;1101;69273;-90
2021/06/03 10:56:21;;;;;;;2.63;2.05;;;;;;;22.36;32.22;97517.92;127794;1101;54749;-93
2021/06/03 10:58:52;;;;;;;4.13;2.15;;;;;;;22.60;32.24;97525.33;127819;1101;56506;-93
2021/06/03 11:01:24;;;;;;;4.18;1.83;;;;;;;22.66;31.17;97520.48;127812;1101;53428;-90
2021/06/03 11:03:59;;;;;;;3.98;2.08;;;;;;;22.01;32.01;97527.42;127815;1101;52897;-90
2021/06/03 11:06:31;;;;;;;6.73;2.35;;;;;;;22.10;31.96;97520.06;127864;1101;25059;-92
2021/06/03 11:09:08;;;;;;;2.88;2.13;;;;;;;22.13;32.25;97514.02;127807;1101;38619;-93
2021/06/03 11:11:43;;;;;;;3.88;1.83;;;;;;;22.38;33.24;97526.51;127892;1096;26213;-93
2021/06/03 11:14:16;;;;;;;3.23;2.18;;;;;;;22.60;31.54;97524.53;127969;1101;22769;-85
2021/06/03 11:16:53;;;;;;;3.43;2.00;;;;;;;22.33;32.07;97521.30;127837;1101;55529;-91
2021/06/03 11:19:27;;;;;;;2.68;1.98;;;;;;;21.83;32.08;97516.77;127819;1101;22777;-87
2021/06/03 11:22:07;;;;;;;4.15;2.30;;;;;;;21.23;32.97;97509.78;127692;1101;23496;-92
2021/06/03 11:24:46;;;;;;;3.35;2.00;;;;;;;21.41;33.49;97515.93;127749;1101;26078;-93
2021/06/03 11:27:18;;;;;;;4.10;2.10;;;;;;;21.67;33.26;97523.05;127794;1096;47202;-92
2021/06/03 11:30:01;;;;;;;2.68;2.08;;;;;;;21.86;33.72;97516.10;127739;1101;31221;-92
2021/06/03 11:32:35;;;;;;;5.03;2.17;;;;;;;21.96;33.60;97511.41;127744;1101;46294;-87
2021/06/03 11:35:10;;;;;;;3.00;1.80;;;;;;;22.12;33.33;97517.84;127757;1101;50871;-89
2021/06/03 11:37:49;;;;;;;2.68;2.00;;;;;;;21.97;32.17;97515.72;127966;1101;51134;-92
2021/06/03 11:40:23;;;;;;;5.37;2.47;;;;;;;21.55;34.14;97510.30;127709;1096;40167;-91
2021/06/03 11:43:07;;;;;;;3.38;2.38;;;;;;;21.09;32.15;97514.61;127809;1101;50720;-92
2021/06/03 11:45:45;;;;;;;5.68;2.40;;;;;;;20.88;33.26;97509.16;127740;1095;61619;-91
2021/06/03 11:48:32;;;;;;;6.03;2.40;;;;;;;20.68;33.01;97507.93;127804;1101;48964;-88
2021/06/03 11:51:10;;;;;;;2.78;2.23;;;;;;;21.11;34.53;97506.98;127714;1101;55722;-90